createdAt,value
2023-01-15T05:15:26.478Z,6.80
2023-01-15T05:16:26.423Z,6.77
2023-01-15T05:17:26.506Z,6.73
2023-01-15T05:18:26.384Z,6.73
2023-01-15T05:19:26.377Z,6.76
2023-01-15T05:20:26.364Z,6.76
2023-01-15T05:21:26.348Z,6.76
2023-01-15T05:22:26.342Z,6.77
2023-01-15T05:23:26.310Z,6.77
2023-01-15T05:24:26.332Z,6.77
2023-01-15T05:25:26.337Z,6.76
2023-01-15T05:26:26.281Z,6.76
2023-01-15T05:27:26.311Z,6.73
2023-01-15T05:28:26.247Z,6.73
2023-01-15T05:29:26.228Z,6.72
2023-01-15T05:30:26.219Z,6.73
2023-01-15T05:31:26.236Z,6.76
2023-01-15T05:32:26.216Z,6.76
2023-01-15T05:33:26.191Z,6.73
2023-01-15T05:34:26.165Z,6.71
2023-01-15T05:35:26.175Z,6.73
2023-01-15T05:36:26.145Z,6.77
2023-01-15T05:37:26.155Z,6.79
2023-01-15T05:38:26.115Z,6.77
2023-01-15T05:39:26.104Z,6.77
2023-01-15T05:40:26.116Z,6.80
2023-01-15T05:41:26.090Z,6.80
2023-01-15T05:42:26.072Z,6.81
2023-01-15T05:43:26.062Z,6.79
2023-01-15T05:44:26.056Z,6.79
2023-01-15T05:45:26.027Z,6.77
2023-01-15T05:46:26.081Z,6.79
2023-01-15T05:47:26.016Z,6.79
2023-01-15T05:48:25.994Z,6.77
2023-01-15T05:49:26.000Z,6.77
2023-01-15T05:50:28.356Z,6.79
2023-01-15T05:51:25.953Z,6.77
2023-01-15T05:52:25.958Z,6.76
2023-01-15T05:53:25.928Z,6.76
2023-01-15T05:54:25.911Z,6.76
2023-01-15T05:55:25.900Z,6.76
2023-01-15T05:56:25.892Z,6.79
2023-01-15T05:57:25.882Z,6.79
2023-01-15T05:58:25.864Z,6.80
2023-01-15T05:59:25.841Z,6.77
2023-01-15T06:00:25.849Z,6.77
2023-01-15T06:01:25.961Z,6.79
2023-01-15T06:02:25.844Z,6.80
2023-01-15T06:03:25.832Z,6.83
2023-01-15T06:04:25.790Z,6.83
2023-01-15T06:05:25.770Z,6.81
2023-01-15T06:06:25.765Z,6.79
2023-01-15T06:07:25.753Z,6.80
2023-01-15T06:08:25.750Z,6.79
2023-01-15T06:09:25.720Z,6.80
2023-01-15T06:10:25.709Z,6.81
2023-01-15T06:11:25.688Z,6.79
2023-01-15T06:12:25.681Z,6.80
2023-01-15T06:13:25.681Z,6.83
2023-01-15T06:14:25.666Z,6.84
2023-01-15T06:15:25.641Z,6.86
2023-01-15T06:16:25.630Z,6.86
2023-01-15T06:17:25.612Z,6.84
2023-01-15T06:18:25.620Z,6.83
2023-01-15T06:19:25.588Z,6.84
2023-01-15T06:20:25.584Z,6.84
2023-01-15T06:21:25.559Z,6.84
2023-01-15T06:22:25.549Z,6.86
2023-01-15T06:23:25.555Z,6.87
2023-01-15T06:24:25.529Z,6.90
2023-01-15T06:25:25.518Z,6.94
2023-01-15T06:26:25.498Z,6.94
2023-01-15T06:27:25.489Z,6.91
2023-01-15T06:28:25.487Z,6.98
2023-01-15T06:29:25.466Z,6.97
2023-01-15T06:30:25.447Z,6.97
2023-01-15T06:31:25.471Z,6.97
2023-01-15T06:32:25.428Z,6.99
2023-01-15T06:33:25.431Z,6.98
2023-01-15T06:34:25.411Z,6.99
2023-01-15T06:35:25.384Z,6.99
2023-01-15T06:36:25.369Z,6.98
2023-01-15T06:37:25.355Z,6.98
2023-01-15T06:38:25.378Z,6.98
2023-01-15T06:39:25.323Z,7.01
2023-01-15T06:40:25.328Z,7.02
2023-01-15T06:41:25.375Z,7.01
2023-01-15T06:42:25.300Z,7.02
2023-01-15T06:43:25.294Z,7.02
2023-01-15T06:44:26.621Z,7.01
2023-01-15T06:45:25.246Z,6.99
2023-01-15T06:46:25.254Z,6.99
2023-01-15T06:47:25.233Z,6.98
2023-01-15T06:48:25.234Z,6.99
2023-01-15T06:49:25.203Z,6.98
2023-01-15T06:50:25.194Z,6.98
2023-01-15T06:51:25.193Z,6.97
2023-01-15T06:52:25.199Z,6.95
2023-01-15T06:53:25.185Z,6.95
2023-01-15T06:54:25.147Z,6.95
2023-01-15T06:55:25.136Z,6.98
2023-01-15T06:56:25.117Z,6.98
2023-01-15T06:57:25.104Z,6.97
2023-01-15T06:58:25.085Z,6.95
2023-01-15T06:59:25.101Z,6.95
2023-01-15T07:00:25.186Z,6.98
2023-01-15T07:01:25.115Z,6.99
2023-01-15T07:02:25.063Z,6.99
2023-01-15T07:03:25.022Z,6.99
2023-01-15T07:04:25.023Z,6.99
2023-01-15T07:05:24.992Z,6.98
2023-01-15T07:06:26.479Z,6.97
2023-01-15T07:07:24.971Z,6.99
2023-01-15T07:08:24.962Z,7.01
2023-01-15T07:09:24.964Z,7.02
2023-01-15T07:10:24.940Z,7.02
2023-01-15T07:11:24.922Z,7.04
2023-01-15T07:12:24.913Z,7.04
2023-01-15T07:13:24.891Z,7.04
2023-01-15T07:14:24.902Z,7.01
2023-01-15T07:15:24.878Z,7.02
2023-01-15T07:16:24.884Z,7.04
2023-01-15T07:17:24.840Z,7.04
2023-01-15T07:18:24.836Z,7.02
2023-01-15T07:19:24.841Z,7.02
2023-01-15T07:20:24.814Z,7.01
2023-01-15T07:21:24.790Z,6.99
2023-01-15T07:22:24.788Z,7.01
2023-01-15T07:23:24.768Z,7.04
2023-01-15T07:24:24.782Z,7.04
2023-01-15T07:25:24.742Z,7.04
2023-01-15T07:26:24.740Z,7.04
2023-01-15T07:27:24.716Z,7.02
2023-01-15T07:28:24.768Z,7.01
2023-01-15T07:29:24.716Z,6.99
2023-01-15T07:30:24.713Z,6.98
2023-01-15T07:31:24.702Z,6.97
2023-01-15T07:32:24.650Z,6.98
2023-01-15T07:33:24.691Z,7.01
2023-01-15T07:34:24.650Z,7.01
2023-01-15T07:35:24.639Z,6.99
2023-01-15T07:36:24.608Z,6.98
2023-01-15T07:37:24.588Z,6.97
2023-01-15T07:38:24.590Z,6.94
2023-01-15T07:39:24.651Z,6.91
2023-01-15T07:40:24.604Z,6.90
2023-01-15T07:41:24.541Z,6.89
2023-01-15T07:42:24.640Z,6.87
2023-01-15T07:43:24.511Z,6.86
2023-01-15T07:44:24.506Z,6.89
2023-01-15T07:45:24.510Z,6.87
2023-01-15T07:46:24.473Z,6.89
2023-01-15T07:47:24.486Z,6.90
2023-01-15T07:48:24.453Z,6.89
2023-01-15T07:49:24.455Z,6.87
2023-01-15T07:50:24.433Z,6.87
2023-01-15T07:51:24.434Z,6.89
2023-01-15T07:52:24.433Z,6.86
2023-01-15T07:53:24.389Z,6.87
2023-01-15T07:54:24.423Z,6.87
2023-01-15T07:55:24.364Z,6.87
2023-01-15T07:56:24.417Z,6.84
2023-01-15T07:57:24.394Z,6.86
2023-01-15T07:58:24.341Z,6.84
2023-01-15T07:59:24.368Z,6.84
2023-01-15T08:00:24.310Z,6.83
2023-01-15T08:01:24.423Z,6.81
2023-01-15T08:02:24.283Z,6.84
2023-01-15T08:03:24.253Z,6.84
2023-01-15T08:04:24.253Z,6.86
2023-01-15T08:05:24.251Z,6.84
2023-01-15T08:06:24.243Z,6.84
2023-01-15T08:07:24.207Z,6.87
2023-01-15T08:08:24.198Z,6.89
2023-01-15T08:09:24.184Z,6.89
2023-01-15T08:10:24.199Z,6.89
2023-01-15T08:11:24.153Z,6.86
2023-01-15T08:12:24.141Z,6.86
2023-01-15T08:13:24.129Z,6.84
2023-01-15T08:14:24.120Z,6.81
2023-01-15T08:15:24.122Z,6.79
2023-01-15T08:16:24.113Z,6.79
2023-01-15T08:17:24.083Z,6.76
2023-01-15T08:18:24.079Z,6.77
2023-01-15T08:19:24.051Z,6.77
2023-01-15T08:20:24.112Z,6.76
2023-01-15T08:21:24.028Z,6.77
2023-01-15T08:22:24.017Z,6.77
2023-01-15T08:23:24.026Z,6.76
2023-01-15T08:24:23.980Z,6.76
2023-01-15T08:25:23.979Z,6.76
2023-01-15T08:26:23.986Z,6.76
2023-01-15T08:27:23.956Z,6.76
2023-01-15T08:28:23.940Z,6.76
2023-01-15T08:29:23.950Z,6.76
2023-01-15T08:30:23.941Z,6.77
2023-01-15T08:31:23.926Z,6.80
2023-01-15T08:32:23.935Z,6.81
2023-01-15T08:33:23.878Z,6.81
2023-01-15T08:34:23.854Z,6.83
2023-01-15T08:35:23.867Z,6.84
2023-01-15T08:36:23.836Z,6.86
2023-01-15T08:37:25.464Z,6.89
2023-01-15T08:38:23.809Z,6.87
2023-01-15T08:39:23.808Z,6.89
2023-01-15T08:40:23.797Z,6.87
2023-01-15T08:41:23.771Z,6.87
2023-01-15T08:42:23.746Z,6.86
2023-01-15T08:43:23.747Z,6.90
2023-01-15T08:44:23.729Z,6.90
2023-01-15T08:45:23.733Z,6.90
2023-01-15T08:46:23.694Z,6.91
2023-01-15T08:47:23.687Z,6.91
2023-01-15T08:48:23.675Z,6.91
2023-01-15T08:49:23.669Z,6.91
2023-01-15T08:50:23.686Z,6.91
2023-01-15T08:51:23.644Z,6.89
2023-01-15T08:52:23.635Z,6.87
2023-01-15T08:53:23.614Z,6.89
2023-01-15T08:54:23.594Z,6.89
2023-01-15T08:55:23.608Z,6.90
2023-01-15T08:56:23.574Z,6.90
2023-01-15T08:57:23.579Z,6.89
2023-01-15T08:58:23.556Z,6.89
2023-01-15T08:59:23.544Z,6.91
2023-01-15T09:00:23.547Z,6.94
2023-01-15T09:01:23.640Z,6.94
2023-01-15T09:02:23.502Z,6.91
2023-01-15T09:03:23.481Z,6.90
2023-01-15T09:04:23.515Z,6.94
2023-01-15T09:05:23.484Z,6.97
2023-01-15T09:06:23.449Z,6.95
2023-01-15T09:07:23.511Z,6.95
2023-01-15T09:08:23.414Z,6.91
2023-01-15T09:09:23.411Z,6.90
2023-01-15T09:10:23.453Z,6.87
2023-01-15T09:11:23.395Z,6.90
2023-01-15T09:12:23.360Z,6.95
2023-01-15T09:13:23.383Z,6.95
2023-01-15T09:14:56.802Z,6.95
2023-01-15T09:15:24.349Z,6.94
2023-01-15T09:16:23.381Z,6.94
2023-01-15T09:17:23.299Z,7.01
2023-01-15T09:18:23.290Z,7.05
2023-01-15T09:19:23.287Z,7.08
2023-01-15T09:20:23.281Z,7.07
2023-01-15T09:21:23.249Z,7.05
2023-01-15T09:22:23.264Z,7.07
2023-01-15T09:23:23.247Z,7.09
2023-01-15T09:24:23.221Z,7.24
2023-01-15T09:25:23.209Z,7.56
2023-01-15T09:26:23.200Z,8.21
2023-01-15T09:27:23.186Z,7.93
2023-01-15T09:28:23.168Z,8.04
2023-01-15T09:29:23.158Z,8.25
2023-01-15T09:30:23.160Z,8.30
2023-01-15T09:31:23.129Z,8.97
2023-01-15T09:32:23.107Z,8.42
2023-01-15T09:33:23.087Z,8.42
2023-01-15T09:34:23.085Z,9.02
2023-01-15T09:35:23.067Z,8.40
2023-01-15T09:36:23.078Z,7.96
2023-01-15T09:37:23.039Z,7.82
2023-01-15T09:38:23.069Z,7.84
2023-01-15T09:39:23.022Z,7.92
2023-01-15T09:40:23.006Z,8.40
2023-01-15T09:41:23.006Z,8.73
2023-01-15T09:42:22.988Z,9.25
2023-01-15T09:43:22.985Z,8.86
2023-01-15T09:44:22.960Z,8.79
2023-01-15T09:45:22.999Z,8.08
2023-01-15T09:46:22.973Z,8.03
2023-01-15T09:47:22.915Z,8.69
2023-01-15T09:48:22.906Z,9.34
2023-01-15T09:49:22.895Z,8.88
2023-01-15T09:50:22.889Z,8.48
2023-01-15T09:51:22.868Z,8.79
2023-01-15T09:52:22.855Z,8.45
2023-01-15T09:53:22.840Z,8.02
2023-01-15T09:54:22.829Z,8.00
2023-01-15T09:55:22.821Z,7.79
2023-01-15T09:56:22.816Z,7.94
2023-01-15T09:57:22.795Z,8.63
2023-01-15T09:58:22.774Z,8.83
2023-01-15T09:59:22.753Z,9.18
2023-01-15T10:00:22.751Z,9.97
2023-01-15T10:01:22.995Z,10.52
2023-01-15T10:02:22.723Z,10.74
2023-01-15T10:03:22.727Z,10.78
2023-01-15T10:04:22.739Z,9.66
2023-01-15T10:05:22.683Z,9.05
2023-01-15T10:06:22.724Z,9.97
2023-01-15T10:07:22.662Z,10.07
2023-01-15T10:08:22.655Z,9.88
2023-01-15T10:09:22.632Z,8.81
2023-01-15T10:10:22.684Z,8.25
2023-01-15T10:11:22.650Z,7.92
2023-01-15T10:12:22.593Z,7.99
2023-01-15T10:13:22.631Z,7.89
2023-01-15T10:14:22.574Z,7.74
2023-01-15T10:15:22.558Z,7.71
2023-01-15T10:16:22.550Z,8.22
2023-01-15T10:17:22.532Z,8.40
2023-01-15T10:18:22.513Z,8.07
2023-01-15T10:19:22.503Z,7.82
2023-01-15T10:20:22.503Z,7.71
2023-01-15T10:21:22.492Z,7.60
2023-01-15T10:22:22.463Z,7.74
2023-01-15T10:23:22.504Z,8.58
2023-01-15T10:24:22.439Z,9.18
2023-01-15T10:25:22.431Z,8.62
2023-01-15T10:26:22.430Z,8.21
2023-01-15T10:27:22.426Z,8.69
2023-01-15T10:28:22.421Z,10.09
2023-01-15T10:29:22.381Z,9.85
2023-01-15T10:30:22.370Z,9.93
2023-01-15T10:31:22.462Z,10.25
2023-01-15T10:32:22.355Z,9.83
2023-01-15T10:33:22.335Z,9.89
2023-01-15T10:34:22.309Z,10.18
2023-01-15T10:35:22.299Z,10.01
2023-01-15T10:36:22.299Z,10.18
2023-01-15T10:37:22.282Z,10.26
2023-01-15T10:38:22.293Z,10.26
2023-01-15T10:39:22.311Z,10.77
2023-01-15T10:40:22.274Z,11.39
2023-01-15T10:41:22.352Z,10.71
2023-01-15T10:42:22.238Z,10.12
2023-01-15T10:43:22.191Z,9.32
2023-01-15T10:44:22.182Z,8.65
2023-01-15T10:45:22.228Z,9.35
2023-01-15T10:46:22.232Z,9.63
2023-01-15T10:47:22.139Z,9.67
2023-01-15T10:48:22.154Z,9.73
2023-01-15T10:49:22.119Z,9.79
2023-01-15T10:50:22.108Z,9.82
2023-01-15T10:51:22.110Z,9.05
2023-01-15T10:52:22.079Z,8.68
2023-01-15T10:53:22.060Z,8.45
2023-01-15T10:54:22.113Z,8.37
2023-01-15T10:55:22.077Z,8.47
2023-01-15T10:56:22.050Z,8.65
2023-01-15T10:57:22.010Z,9.24
2023-01-15T10:58:21.999Z,9.16
2023-01-15T10:59:21.978Z,8.68
2023-01-15T11:00:21.978Z,8.35
2023-01-15T11:01:22.118Z,8.42
2023-01-15T11:02:22.060Z,8.22
2023-01-15T11:03:21.928Z,8.88
2023-01-15T11:04:21.943Z,8.71
2023-01-15T11:05:21.908Z,8.53
2023-01-15T11:06:21.917Z,8.36
2023-01-15T11:07:21.877Z,8.22
2023-01-15T11:09:06.694Z,8.14
2023-01-15T11:09:22.859Z,8.20
2023-01-15T11:10:21.842Z,8.25
2023-01-15T11:11:21.817Z,8.32
2023-01-15T11:12:21.823Z,8.55
2023-01-15T11:13:21.797Z,8.50
2023-01-15T11:14:21.802Z,8.47
2023-01-15T11:15:21.771Z,8.91
2023-01-15T11:16:21.762Z,8.84
2023-01-15T11:17:21.757Z,8.62
2023-01-15T11:18:21.731Z,8.39
2023-01-15T11:19:21.716Z,8.22
2023-01-15T11:20:21.699Z,8.53
2023-01-15T11:21:21.697Z,8.81
2023-01-15T11:22:21.693Z,8.48
2023-01-15T11:23:21.673Z,8.44
2023-01-15T11:24:21.648Z,8.50
2023-01-15T11:25:21.645Z,8.36
2023-01-15T11:26:21.617Z,8.22
2023-01-15T11:27:21.627Z,8.18
2023-01-15T11:28:21.595Z,8.14
2023-01-15T11:29:21.595Z,8.10
2023-01-15T11:30:21.573Z,8.07
2023-01-15T11:31:21.566Z,7.99
2023-01-15T11:32:21.563Z,7.94
2023-01-15T11:33:21.557Z,7.89
2023-01-15T11:34:21.964Z,7.87
2023-01-15T11:35:21.514Z,7.85
2023-01-15T11:36:21.507Z,7.84
2023-01-15T11:37:21.494Z,7.85
2023-01-15T11:38:21.464Z,7.90
2023-01-15T11:39:21.455Z,7.93
2023-01-15T11:40:21.444Z,7.96
2023-01-15T11:41:21.433Z,8.22
2023-01-15T11:42:21.445Z,9.64
2023-01-15T11:43:21.416Z,9.20
2023-01-15T11:44:21.393Z,8.79
2023-01-15T11:45:21.387Z,8.53
2023-01-15T11:46:21.437Z,8.48
2023-01-15T11:47:21.383Z,8.35
2023-01-15T11:48:21.340Z,8.40
2023-01-15T11:49:21.333Z,8.44
2023-01-15T11:50:21.321Z,8.48
2023-01-15T11:51:21.315Z,8.44
2023-01-15T11:52:21.305Z,8.36
2023-01-15T11:53:21.297Z,8.33
2023-01-15T11:54:21.266Z,8.36
2023-01-15T11:55:21.251Z,9.05
2023-01-15T11:56:21.254Z,8.90
2023-01-15T11:57:21.242Z,9.09
2023-01-15T11:58:21.220Z,9.64
2023-01-15T11:59:21.220Z,9.12
2023-01-15T12:00:21.188Z,8.73
2023-01-15T12:01:21.243Z,8.45
2023-01-15T12:02:21.201Z,8.36
2023-01-15T12:03:21.211Z,8.28
2023-01-15T12:04:21.191Z,8.18
2023-01-15T12:05:21.130Z,8.11
2023-01-15T12:06:21.110Z,8.10
2023-01-15T12:07:21.111Z,8.12
2023-01-15T12:08:21.186Z,8.15
2023-01-15T12:09:21.083Z,8.14
2023-01-15T12:10:21.060Z,8.10
2023-01-15T12:11:27.069Z,8.07
2023-01-15T12:12:22.148Z,8.07
2023-01-15T12:13:21.030Z,8.03
2023-01-15T12:14:21.034Z,8.02
2023-01-15T12:15:21.000Z,8.00
2023-01-15T12:16:21.090Z,8.00
2023-01-15T12:17:20.997Z,8.03
2023-01-15T12:18:20.981Z,8.02
2023-01-15T12:19:20.949Z,8.03
2023-01-15T12:20:20.931Z,8.03
2023-01-15T12:21:20.920Z,7.97
2023-01-15T12:22:20.908Z,7.97
2023-01-15T12:23:20.916Z,7.96
2023-01-15T12:24:20.881Z,7.96
2023-01-15T12:25:20.895Z,7.93
2023-01-15T12:26:20.874Z,7.93
2023-01-15T12:27:20.860Z,7.92
2023-01-15T12:28:20.852Z,7.90
2023-01-15T12:29:20.821Z,7.90
2023-01-15T12:30:20.834Z,7.89
2023-01-15T12:31:20.855Z,7.90
2023-01-15T12:32:20.802Z,7.90
2023-01-15T12:33:20.783Z,7.87
2023-01-15T12:34:20.788Z,7.89
2023-01-15T12:35:20.750Z,7.90
2023-01-15T12:36:20.776Z,7.90
2023-01-15T12:37:20.859Z,7.92
2023-01-15T12:38:20.707Z,7.93
2023-01-15T12:39:20.739Z,8.02
2023-01-15T12:40:20.709Z,8.10
2023-01-15T12:41:20.671Z,8.14
2023-01-15T12:42:20.691Z,8.08
2023-01-15T12:43:20.713Z,8.08
2023-01-15T12:44:20.688Z,8.03
2023-01-15T12:45:20.692Z,8.03
2023-01-15T12:46:20.620Z,8.04
2023-01-15T12:47:20.638Z,8.02
2023-01-15T12:48:20.628Z,8.00
2023-01-15T12:49:20.599Z,7.96
2023-01-15T12:50:20.617Z,7.93
2023-01-15T12:51:21.253Z,7.90
2023-01-15T12:52:20.525Z,7.90
2023-01-15T12:53:20.536Z,7.97
2023-01-15T12:54:20.535Z,8.04
2023-01-15T12:55:20.486Z,8.04
2023-01-15T12:56:20.473Z,8.03
2023-01-15T12:57:20.486Z,7.99
2023-01-15T12:58:20.453Z,7.94
2023-01-15T12:59:20.424Z,7.93
2023-01-15T13:00:20.430Z,7.93
2023-01-15T13:01:20.525Z,7.92
2023-01-15T13:02:20.481Z,7.94
2023-01-15T13:03:20.395Z,7.96
2023-01-15T13:04:20.445Z,7.94
2023-01-15T13:05:20.438Z,7.96
2023-01-15T13:06:20.352Z,7.99
2023-01-15T13:07:20.352Z,7.93
2023-01-15T13:08:20.324Z,7.94
2023-01-15T13:09:20.303Z,7.97
2023-01-15T13:10:20.395Z,8.02
2023-01-15T13:11:20.312Z,8.04
2023-01-15T13:12:20.264Z,8.10
2023-01-15T13:13:20.312Z,8.08
2023-01-15T13:14:20.265Z,8.12
2023-01-15T13:15:20.220Z,8.20
2023-01-15T13:16:20.259Z,8.29
2023-01-15T13:17:20.389Z,8.26
2023-01-15T13:18:20.206Z,8.28
2023-01-15T13:19:20.172Z,8.36
2023-01-15T13:20:20.189Z,8.47
2023-01-15T13:21:20.152Z,8.42
2023-01-15T13:22:20.123Z,8.36
2023-01-15T13:23:20.170Z,8.30
2023-01-15T13:24:20.102Z,8.30
2023-01-15T13:25:20.107Z,8.35
2023-01-15T13:26:20.106Z,8.35
2023-01-15T13:27:20.060Z,8.32
2023-01-15T13:28:20.171Z,8.26
2023-01-15T13:29:20.129Z,8.18
2023-01-15T13:30:20.033Z,8.15
2023-01-15T13:31:20.075Z,8.15
2023-01-15T13:32:20.002Z,8.03
2023-01-15T13:33:19.995Z,8.02
2023-01-15T13:34:19.996Z,7.99
2023-01-15T13:35:19.977Z,7.96
2023-01-15T13:36:19.970Z,7.94
2023-01-15T13:37:19.946Z,7.96
2023-01-15T13:38:19.924Z,7.93
2023-01-15T13:39:20.035Z,7.96
2023-01-15T13:40:19.891Z,7.97
2023-01-15T13:41:19.899Z,7.99
2023-01-15T13:42:19.876Z,8.00
2023-01-15T13:43:19.849Z,8.02
2023-01-15T13:44:19.866Z,7.99
2023-01-15T13:45:19.868Z,7.96
2023-01-15T13:46:19.874Z,7.94
2023-01-15T13:47:19.871Z,7.89
2023-01-15T13:48:19.813Z,7.85
2023-01-15T13:49:19.799Z,7.82
2023-01-15T13:50:19.828Z,7.81
2023-01-15T13:51:19.783Z,7.79
2023-01-15T13:52:19.747Z,7.79
2023-01-15T13:53:19.736Z,7.79
2023-01-15T13:54:19.727Z,7.81
2023-01-15T13:55:19.699Z,7.82
2023-01-15T13:56:19.698Z,7.84
2023-01-15T13:57:19.677Z,7.85
2023-01-15T13:58:19.685Z,7.84
2023-01-15T13:59:19.663Z,7.85
2023-01-15T14:00:19.674Z,7.92
2023-01-15T14:01:19.819Z,7.92
2023-01-15T14:02:19.614Z,7.90
2023-01-15T14:03:19.661Z,7.89
2023-01-15T14:04:19.597Z,7.84
2023-01-15T14:05:19.576Z,7.85
2023-01-15T14:06:19.564Z,7.85
2023-01-15T14:07:19.545Z,7.87
2023-01-15T14:08:19.574Z,7.90
2023-01-15T14:09:19.533Z,7.92
2023-01-15T14:10:19.535Z,7.94
2023-01-15T14:11:19.496Z,7.96
2023-01-15T14:12:19.485Z,7.96
2023-01-15T14:13:19.475Z,7.94
2023-01-15T14:14:19.481Z,7.96
2023-01-15T14:15:19.441Z,7.93
2023-01-15T14:16:19.457Z,7.93
2023-01-15T14:17:19.425Z,8.00
2023-01-15T14:18:19.413Z,8.08
2023-01-15T14:19:19.403Z,8.10
2023-01-15T14:20:19.372Z,8.08
2023-01-15T14:21:19.422Z,8.03
2023-01-15T14:22:19.358Z,8.03
2023-01-15T14:23:19.342Z,8.02
2023-01-15T14:24:19.337Z,8.00
2023-01-15T14:25:19.311Z,7.94
2023-01-15T14:26:19.317Z,7.89
2023-01-15T14:27:19.331Z,7.87
2023-01-15T14:28:19.271Z,7.85
2023-01-15T14:29:19.281Z,7.78
2023-01-15T14:30:19.247Z,7.72
2023-01-15T14:31:19.274Z,7.71
2023-01-15T14:32:19.245Z,7.67
2023-01-15T14:33:19.212Z,7.66
2023-01-15T14:34:19.220Z,7.66
2023-01-15T14:35:19.192Z,7.67
2023-01-15T14:36:19.182Z,7.66
2023-01-15T14:37:19.169Z,7.66
2023-01-15T14:38:19.143Z,7.63
2023-01-15T14:39:19.141Z,7.66
2023-01-15T14:40:19.126Z,7.66
2023-01-15T14:41:19.110Z,7.67
2023-01-15T14:42:19.089Z,7.66
2023-01-15T14:43:19.089Z,7.67
2023-01-15T14:44:19.079Z,7.66
2023-01-15T14:45:19.057Z,7.66
2023-01-15T14:46:19.059Z,7.67
2023-01-15T14:47:19.030Z,7.62
2023-01-15T14:48:19.023Z,7.58
2023-01-15T14:49:19.017Z,7.58
2023-01-15T14:50:18.989Z,7.53
2023-01-15T14:51:18.977Z,7.53
2023-01-15T14:52:18.971Z,7.50
2023-01-15T14:53:18.955Z,7.49
2023-01-15T14:54:18.937Z,7.50
2023-01-15T14:55:18.938Z,7.53
2023-01-15T14:56:18.922Z,7.58
2023-01-15T14:57:18.918Z,7.60
2023-01-15T14:58:18.880Z,7.66
2023-01-15T14:59:18.883Z,7.67
2023-01-15T15:00:18.875Z,7.69
2023-01-15T15:01:18.965Z,7.69
2023-01-15T15:02:19.009Z,7.71
2023-01-15T15:03:18.841Z,7.72
2023-01-15T15:04:18.807Z,7.72
2023-01-15T15:05:18.827Z,7.72
2023-01-15T15:06:18.783Z,7.72
2023-01-15T15:07:18.837Z,7.72
2023-01-15T15:08:18.767Z,7.74
2023-01-15T15:09:18.747Z,7.72
2023-01-15T15:10:18.747Z,7.72
2023-01-15T15:11:18.723Z,7.72
2023-01-15T15:12:18.714Z,7.72
2023-01-15T15:13:18.733Z,7.71
2023-01-15T15:14:18.706Z,7.69
2023-01-15T15:15:18.687Z,7.69
2023-01-15T15:16:18.693Z,7.69
2023-01-15T15:17:18.667Z,7.69
2023-01-15T15:18:18.745Z,7.71
2023-01-15T15:19:18.622Z,7.72
2023-01-15T15:20:18.683Z,7.72
2023-01-15T15:21:18.650Z,7.71
2023-01-15T15:22:18.582Z,7.71
2023-01-15T15:23:18.567Z,7.72
2023-01-15T15:24:18.574Z,7.72
2023-01-15T15:25:18.621Z,7.71
2023-01-15T15:26:18.531Z,7.69
2023-01-15T15:27:18.524Z,7.67
2023-01-15T15:28:18.513Z,7.67
2023-01-15T15:29:18.482Z,7.67
2023-01-15T15:30:18.482Z,7.66
2023-01-15T15:31:18.492Z,7.66
2023-01-15T15:32:18.465Z,7.69
2023-01-15T15:33:18.452Z,7.66
2023-01-15T15:34:18.513Z,7.63
2023-01-15T15:35:18.435Z,7.60
2023-01-15T15:36:18.491Z,7.62
2023-01-15T15:37:18.411Z,7.62
2023-01-15T15:38:18.472Z,7.62
2023-01-15T15:39:18.452Z,7.60
2023-01-15T15:40:18.529Z,7.59
2023-01-15T15:41:18.350Z,7.58
2023-01-15T15:42:18.329Z,7.56
2023-01-15T15:43:18.349Z,7.55
2023-01-15T15:44:18.290Z,7.56
2023-01-15T15:45:18.376Z,7.56
2023-01-15T15:46:18.319Z,7.56
2023-01-15T15:47:18.258Z,7.58
2023-01-15T15:48:18.269Z,7.58
2023-01-15T15:49:18.299Z,7.55
2023-01-15T15:50:18.238Z,7.55
2023-01-15T15:51:18.216Z,7.55
2023-01-15T15:52:18.197Z,7.53
2023-01-15T15:53:18.194Z,7.55
2023-01-15T15:54:18.157Z,7.53
2023-01-15T15:55:18.176Z,7.53
2023-01-15T15:56:18.137Z,7.55
2023-01-15T15:57:18.128Z,7.56
2023-01-15T15:58:18.139Z,7.56
2023-01-15T15:59:18.156Z,7.56
2023-01-15T16:00:18.172Z,7.53
2023-01-15T16:01:18.135Z,7.52
2023-01-15T16:02:18.374Z,7.52
2023-01-15T16:03:18.085Z,7.52
2023-01-15T16:04:18.035Z,7.49
2023-01-15T16:05:18.082Z,7.45
2023-01-15T16:06:18.019Z,7.44
2023-01-15T16:07:18.183Z,7.42
2023-01-15T16:08:17.989Z,7.42
2023-01-15T16:09:17.974Z,7.45
2023-01-15T16:10:17.959Z,7.42
2023-01-15T16:11:17.965Z,7.41
2023-01-15T16:12:17.932Z,7.41
2023-01-15T16:13:17.923Z,7.44
2023-01-15T16:14:17.929Z,7.42
2023-01-15T16:15:17.925Z,7.42
2023-01-15T16:16:17.890Z,7.40
2023-01-15T16:17:17.872Z,7.42
2023-01-15T16:18:17.861Z,7.44
2023-01-15T16:19:17.843Z,7.47
2023-01-15T16:20:17.834Z,7.47
2023-01-15T16:21:17.838Z,7.44
2023-01-15T16:22:17.809Z,7.41
2023-01-15T16:23:17.793Z,7.40
2023-01-15T16:24:17.783Z,7.40
2023-01-15T16:25:17.762Z,7.41
2023-01-15T16:26:17.770Z,7.41
2023-01-15T16:27:17.748Z,7.41
2023-01-15T16:28:17.724Z,7.42
2023-01-15T16:29:17.724Z,7.41
2023-01-15T16:30:17.706Z,7.41
2023-01-15T16:31:17.796Z,7.41
2023-01-15T16:32:17.845Z,7.40
2023-01-15T16:33:17.662Z,7.37
2023-01-15T16:34:17.655Z,7.40
2023-01-15T16:35:17.638Z,7.38
2023-01-15T16:36:17.643Z,7.40
2023-01-15T16:37:17.613Z,7.41
2023-01-15T16:38:17.592Z,7.38
2023-01-15T16:39:17.584Z,7.38
2023-01-15T16:40:17.569Z,7.37
2023-01-15T16:41:17.572Z,7.37
2023-01-15T16:42:17.565Z,7.35
2023-01-15T16:43:17.561Z,7.32
2023-01-15T16:44:17.531Z,7.34
2023-01-15T16:45:17.530Z,7.32
2023-01-15T16:46:17.577Z,7.34
2023-01-15T16:47:17.504Z,7.35
2023-01-15T16:48:17.470Z,7.35
2023-01-15T16:49:17.478Z,7.34
2023-01-15T16:50:17.450Z,7.37
2023-01-15T16:51:17.449Z,7.35
2023-01-15T16:52:17.435Z,7.35
2023-01-15T16:53:17.408Z,7.35
2023-01-15T16:54:17.389Z,7.35
2023-01-15T16:55:18.144Z,7.37
2023-01-15T16:56:17.378Z,7.37
2023-01-15T16:57:17.356Z,7.37
2023-01-15T16:58:17.337Z,7.34
2023-01-15T16:59:17.342Z,7.32
2023-01-15T17:00:17.318Z,7.34
2023-01-15T17:01:17.400Z,7.34
2023-01-15T17:02:17.339Z,7.37
2023-01-15T17:03:17.282Z,7.35
2023-01-15T17:04:17.259Z,7.35
2023-01-15T17:05:17.280Z,7.32
2023-01-15T17:06:17.257Z,7.32
2023-01-15T17:07:17.247Z,7.29
2023-01-15T17:08:17.207Z,7.29
2023-01-15T17:09:17.214Z,7.27
2023-01-15T17:10:17.187Z,7.27
2023-01-15T17:11:17.187Z,7.24
2023-01-15T17:12:17.164Z,7.23
2023-01-15T17:13:17.144Z,7.24
2023-01-15T17:14:17.136Z,7.23
2023-01-15T17:15:17.230Z,7.23
2023-01-15T17:16:17.212Z,7.23
2023-01-15T17:17:17.113Z,7.22
2023-01-15T17:18:17.104Z,7.22
2023-01-15T17:19:17.075Z,7.20
2023-01-15T17:20:17.072Z,7.20
2023-01-15T17:21:17.053Z,7.20
2023-01-15T17:22:17.052Z,7.19
2023-01-15T17:23:17.021Z,7.19
2023-01-15T17:24:17.009Z,7.17
2023-01-15T17:25:16.989Z,7.16
2023-01-15T17:26:17.011Z,7.13
2023-01-15T17:27:16.977Z,7.13
2023-01-15T17:28:16.992Z,7.17
2023-01-15T17:29:16.945Z,7.17
2023-01-15T17:30:16.944Z,7.17
2023-01-15T17:31:16.946Z,7.15
2023-01-15T17:32:16.922Z,7.15
2023-01-15T17:33:16.892Z,7.15
2023-01-15T17:34:16.889Z,7.12
2023-01-15T17:35:16.861Z,7.08
2023-01-15T17:36:16.854Z,7.07
2023-01-15T17:37:16.890Z,7.04
2023-01-15T17:38:16.822Z,7.01
2023-01-15T17:39:18.606Z,6.99
2023-01-15T17:40:16.800Z,6.97
2023-01-15T17:41:16.783Z,6.98
2023-01-15T17:42:16.804Z,6.98
2023-01-15T17:43:16.769Z,6.99
2023-01-15T17:44:16.787Z,6.98
2023-01-15T17:45:16.773Z,6.94
2023-01-15T17:46:16.791Z,6.97
2023-01-15T17:47:16.719Z,6.95
2023-01-15T17:48:16.750Z,6.91
2023-01-15T17:49:16.683Z,6.90
2023-01-15T17:50:16.679Z,6.90
2023-01-15T17:51:16.673Z,6.89
2023-01-15T17:52:16.682Z,6.87
2023-01-15T17:53:16.659Z,6.86
2023-01-15T17:54:16.628Z,6.84
2023-01-15T17:55:18.979Z,6.83
2023-01-15T17:56:16.610Z,6.83
2023-01-15T17:57:16.602Z,6.84
2023-01-15T17:58:16.597Z,6.84
2023-01-15T17:59:16.611Z,6.84
2023-01-15T18:00:16.547Z,6.84
2023-01-15T18:01:16.657Z,6.87
2023-01-15T18:02:16.552Z,6.89
2023-01-15T18:03:16.511Z,6.86
2023-01-15T18:04:16.565Z,6.86
2023-01-15T18:05:16.487Z,6.90
2023-01-15T18:06:16.488Z,6.90
2023-01-15T18:07:16.533Z,6.95
2023-01-15T18:08:16.437Z,7.01
2023-01-15T18:09:16.498Z,6.99
2023-01-15T18:10:16.424Z,6.98
2023-01-15T18:11:16.410Z,6.97
2023-01-15T18:12:16.417Z,6.98
2023-01-15T18:13:16.417Z,6.98
2023-01-15T18:14:16.367Z,6.97
2023-01-15T18:15:16.488Z,6.94
2023-01-15T18:16:16.421Z,6.94
2023-01-15T18:17:16.335Z,6.94
2023-01-15T18:18:16.318Z,6.91
2023-01-15T18:19:16.345Z,6.90
2023-01-15T18:20:16.293Z,6.90
2023-01-15T18:21:16.294Z,6.94
2023-01-15T18:22:16.341Z,6.91
2023-01-15T18:23:16.295Z,6.91
2023-01-15T18:24:16.235Z,6.91
2023-01-15T18:25:16.224Z,6.90
2023-01-15T18:26:16.212Z,6.90
2023-01-15T18:27:16.215Z,6.95
2023-01-15T18:28:16.234Z,6.98
2023-01-15T18:29:16.183Z,6.97
2023-01-15T18:30:16.175Z,6.97
2023-01-15T18:31:16.219Z,6.95
2023-01-15T18:32:16.148Z,6.91